Latest Coastal Weather Observations for Kingscote

IDS60701

Issued at 1:51 am CST Friday 6 May 2016 (issued every 10 minutes, with the page automatically refreshed every 10 minutes)

About coastal observations | Map of coastal stations | Coastal observations for SA | Marine services | Other Formats
Station Details ID: 022841 Name: KINGSCOTE AERO Lat: -35.71 Lon: 137.52 Height: 6.23 m
Data from the previous 72 hours. | See also: Recent months at Kingscote
Date/Time
CST
Temp

°C
Wind Pressure Rain
since 9am
mm
Weather Cloud Vis
km
Sea
Height
m
Swell
Dir
 
Speed
knots
Gust
knots
hPa Trend Height
m
Period
s
Dir
06/01:30am 10.6 CALM 0 0 1012.2 - 0.0 - - 1 - - - -
06/01:00am 10.6 NNW 3 4 1012.2 - 0.0 - - 2 - - - -
06/12:56am 11.5 NNW 3 4 1012.2 - 0.0 - - 4 - - - -
06/12:52am 11.1 NNW 1 4 1012.2 - 0.0 - - 10 - - - -
06/12:32am 12.0 CALM 0 0 1012.1 - 0.0 - - 5 - - - -
06/12:30am 12.2 CALM 0 0 1012.1 - 0.0 - - 9 - - - -
06/12:00am 12.1 CALM 0 0 1012.0 - 0.0 - - 10 - - - -
 
Date/Time
CST
Temp

°C
Wind Pressure Rain
since 9am
mm
Weather Cloud Vis
km
Sea
Height
m
Swell
Dir
 
Speed
knots
Gust
knots
hPa Trend Height
m
Period
s
Dir
05/11:30pm 12.2 NNW 2 4 1011.9 - 0.0 - - 10 - - - -
05/11:00pm 13.3 NE 1 4 1011.8 - 0.0 - - 10 - - - -
05/10:30pm 13.8 CALM 0 0 1011.7 - 0.0 - - 10 - - - -
05/10:00pm 14.8 NNE 3 5 1011.7 - 0.0 - - 10 - - - -
05/09:30pm 15.8 W 4 6 1011.5 - 0.0 - - 10 - - - -
05/09:00pm 16.6 WNW 6 8 1011.2 - 0.0 - - 10 - - - -
05/08:30pm 17.8 NW 7 10 1010.9 - 0.0 - - 10 - - - -
05/08:00pm 18.1 NW 9 12 1010.9 - 0.0 - - 10 - - - -
05/07:30pm 18.6 NW 9 12 1010.8 - 0.0 - - 10 - - - -
05/07:00pm 17.9 NW 7 10 1010.8 - 0.0 - - 10 - - - -
05/06:30pm 18.7 NW 8 10 1010.4 - 0.0 - - 10 - - - -
05/06:00pm 19.7 NNW 9 12 1009.8 - 0.0 - - 10 - - - -
05/05:30pm 20.5 NNW 8 11 1009.5 - 0.0 - - 10 - - - -
05/05:00pm 21.4 NNW 9 13 1009.5 - 0.0 - - 10 - - - -
05/04:30pm 22.8 NW 13 18 1009.5 - 0.0 - - 10 - - - -
05/04:00pm 23.0 NW 15 22 1009.5 - 0.0 - - 10 - - - -
05/03:30pm 23.0 NW 18 26 1009.7 - 0.0 - - 10 - - - -
05/03:00pm 23.1 NW 16 23 1009.5 - 0.0 - - 10 - - - -
05/02:30pm 23.1 NW 16 25 1009.7 - 0.0 - - 10 - - - -
05/02:00pm 23.2 NW 15 25 1009.9 - 0.0 - - 10 - - - -
05/01:30pm 22.9 NW 17 27 1010.0 - 0.0 - - 10 - - - -
05/01:00pm 22.9 NW 18 29 1010.3 - 0.0 - - 10 - - - -
05/12:58pm 22.7 NW 17 28 1010.3 - 0.0 - - 10 - - - -
05/12:30pm 22.4 NNW 19 27 1010.6 - 0.0 - - 10 - - - -
05/12:08pm 21.9 NNW 18 28 1010.9 - 0.0 - - 10 - - - -
05/12:00pm 21.8 NNW 19 25 1011.1 - 0.0 - - 10 - - - -
05/11:30am 21.6 NNW 18 25 1011.5 - 0.0 - - 10 - - - -
05/11:00am 21.0 NNW 16 23 1012.0 - 0.0 - - 10 - - - -
05/10:30am 20.3 NNW 13 19 1012.4 - 0.0 - - 10 - - - -
05/10:00am 19.4 NNW 11 17 1013.0 - 0.0 - - 10 - - - -
05/09:30am 19.0 NNW 12 17 1013.3 - 0.0 - - 10 - - - -
05/09:00am 18.3 NNW 12 18 1013.4 - 0.2 - - 10 - - - -
05/08:30am 17.7 NNW 11 16 1013.3 - 0.2 - - 10 - - - -
05/08:00am 17.0 NNW 9 15 1013.1 - 0.2 - - 10 - - - -
05/07:30am 16.5 NNW 9 13 1012.7 - 0.2 - - 10 - - - -
05/07:00am 16.2 NNW 10 16 1012.7 - 0.2 - - 10 - - - -
05/06:30am 16.2 NNW 11 16 1012.6 - 0.2 - - 10 - - - -
05/06:00am 16.2 NNW 10 14 1012.6 - 0.2 - Mostly clear 10 - - - -
05/05:30am 16.1 NNW 10 15 1012.2 - 0.2 - - 10 - - - -
05/05:00am 16.3 NNW 11 15 1012.1 - 0.2 - - 10 - - - -
05/04:30am 16.4 NNW 11 16 1012.2 - 0.2 - - 10 - - - -
05/04:00am 16.6 NNW 10 15 1012.2 - 0.2 - Partly cloudy 10 - - - -
05/03:30am 16.7 NNW 11 15 1012.5 - 0.2 - Partly cloudy 10 - - - -
05/03:00am 16.5 NW 10 13 1012.7 - 0.2 - Mostly clear 10 - - - -
05/02:30am 16.7 NW 12 16 1012.8 - 0.2 - Partly cloudy 10 - - - -
05/02:00am 16.8 NNW 12 18 1013.0 - 0.2 - Partly cloudy 10 - - - -
05/01:30am 16.7 NNW 11 16 1013.3 - 0.2 - Partly cloudy 10 - - - -
05/01:00am 16.4 NW 11 17 1013.4 - 0.2 - Partly cloudy 10 - - - -
05/12:30am 16.6 NW 11 17 1013.6 - 0.2 - Partly cloudy 10 - - - -
05/12:00am 16.4 NNW 13 17 1013.6 - 0.2 - Mostly cloudy 10 - - - -
 
Date/Time
CST
Temp

°C
Wind Pressure Rain
since 9am
mm
Weather Cloud Vis
km
Sea
Height
m
Swell
Dir
 
Speed
knots
Gust
knots
hPa Trend Height
m
Period
s
Dir
04/11:30pm 16.2 NW 10 13 1013.8 - 0.2 - Partly cloudy 10 - - - -
04/11:00pm 16.1 NNW 11 15 1014.0 - 0.2 - Partly cloudy 10 - - - -
04/10:30pm 15.5 NNW 11 15 1014.3 - 0.2 - Partly cloudy 10 - - - -
04/10:00pm 16.1 NW 14 19 1014.4 - 0.2 - Partly cloudy 10 - - - -
04/09:30pm 16.0 NW 14 23 1014.4 - 0.2 - Partly cloudy 10 - - - -
04/09:00pm 16.4 NW 10 13 1014.5 - 0.2 - Cloudy 10 - - - -
04/08:30pm 16.9 NW 9 14 1014.4 - 0.2 - Partly cloudy 10 - - - -
04/08:00pm 16.7 NNW 10 14 1014.2 - 0.2 - Partly cloudy 10 - - - -
04/07:30pm 16.6 NW 10 14 1014.2 - 0.2 - Partly cloudy 10 - - - -
04/07:00pm 16.4 NW 12 16 1014.0 - 0.2 - Partly cloudy 10 - - - -
04/06:30pm 16.4 NW 11 14 1013.9 - 0.2 - Partly cloudy 10 - - - -
04/06:00pm 15.5 NNW 8 10 1013.6 - 0.2 - Mostly clear 10 - - - -
04/05:30pm 15.4 NW 13 19 1013.6 - 0.2 - Partly cloudy 10 - - - -
04/05:00pm 16.5 NW 12 17 1013.5 - 0.2 - Partly cloudy 10 - - - -
04/04:30pm 17.0 NW 16 22 1013.5 - 0.2 - Partly cloudy 10 - - - -
04/04:00pm 17.0 NW 17 23 1013.5 - 0.2 - Partly cloudy 10 - - - -
04/03:30pm 17.5 NW 14 21 1013.4 - 0.2 - Partly cloudy 10 - - - -
04/03:00pm 16.7 NW 15 21 1013.6 - 0.2 - Cloudy 10 - - - -
04/02:30pm 16.7 NW 15 20 1013.8 - 0.2 - Partly cloudy 10 - - - -
04/02:00pm 17.4 NW 16 23 1013.9 - 0.2 - Partly cloudy 10 - - - -
04/01:30pm 17.6 NW 15 21 1014.2 - 0.2 - Partly cloudy 10 - - - -
04/01:00pm 17.3 NW 15 20 1014.4 - 0.2 - Partly cloudy 10 - - - -
04/12:30pm 17.1 NW 10 13 1014.6 - 0.2 - Partly cloudy 10 - - - -
04/12:15pm 16.2 WNW 10 14 1015.0 - 0.2 - Partly cloudy 10 - - - -
04/12:01pm 14.9 WNW 14 21 1015.4 - 0.2 - Partly cloudy 5 - - - -
04/12:00pm 14.7 WNW 14 21 1015.4 - 0.2 Rain Mostly cloudy 6 - - - -
04/11:30am 17.6 NW 11 17 1015.4 - 0.0 - Partly cloudy 10 - - - -
04/11:00am 17.0 NW 10 15 1015.8 - 0.0 - Partly cloudy 10 - - - -
04/10:30am 16.6 NW 11 17 1016.0 - 0.0 - Partly cloudy 10 - - - -
04/10:00am 15.7 N 4 5 1016.0 - 0.0 - Partly cloudy 10 - - - -
04/09:30am 14.3 CALM 0 0 1016.0 - 0.0 - Partly cloudy 10 - - - -
04/09:00am 12.8 CALM 0 4 1016.0 - 1.6 - Mostly cloudy 10 - - - -
04/08:30am 11.1 CALM 0 0 1015.9 - 1.6 - Partly cloudy 10 - - - -
04/08:00am 9.8 CALM 0 0 1015.6 - 1.6 - Cloudy 10 - - - -
04/07:30am 9.2 CALM 0 0 1015.2 - 1.6 - Cloudy 10 - - - -
04/07:00am 8.7 CALM 0 0 1015.0 - 1.6 - Cloudy 10 - - - -
04/06:30am 8.2 CALM 0 0 1014.5 - 1.6 - Cloudy 10 - - - -
04/06:00am 7.2 CALM 0 0 1014.4 - 1.6 - Partly cloudy 10 - - - -
04/05:30am 8.5 CALM 0 0 1014.2 - 1.6 - - 10 - - - -
04/05:00am 8.5 CALM 0 0 1013.9 - 1.6 - - 10 - - - -
04/04:30am 9.4 NW 5 5 1013.7 - 1.6 - Partly cloudy 10 - - - -
04/04:00am 10.3 NW 4 5 1013.6 - 1.6 - - 10 - - - -
04/03:30am 10.2 WNW 5 6 1013.5 - 1.6 - Partly cloudy 10 - - - -
04/03:00am 11.1 W 6 8 1013.6 - 1.6 - Partly cloudy 10 - - - -
04/02:30am 11.5 W 7 10 1013.5 - 1.6 - Partly cloudy 10 - - - -
04/02:00am 12.1 W 9 11 1013.3 - 1.6 - Partly cloudy 10 - - - -
04/01:30am 11.2 W 6 8 1013.1 - 1.6 - Partly cloudy 10 - - - -
04/01:00am 11.7 WNW 7 8 1013.0 - 1.6 - Partly cloudy 10 - - - -
04/12:30am 12.1 W 7 10 1012.9 - 1.6 - Partly cloudy 10 - - - -
04/12:00am 11.8 W 8 10 1013.2 - 1.6 - Cloudy 10 - - - -
 
Date/Time
CST
Temp

°C
Wind Pressure Rain
since 9am
mm
Weather Cloud Vis
km
Sea
Height
m
Swell
Dir
 
Speed
knots
Gust
knots
hPa Trend Height
m
Period
s
Dir
03/11:30pm 11.7 W 7 10 1013.1 - 1.6 - Partly cloudy 10 - - - -
03/11:00pm 11.6 W 5 6 1013.0 - 1.6 - Partly cloudy 10 - - - -
03/10:30pm 11.3 W 6 7 1013.1 - 1.6 - Partly cloudy 10 - - - -
03/10:00pm 11.8 W 6 8 1012.9 - 1.6 - Partly cloudy 10 - - - -
03/09:30pm 10.7 W 5 7 1012.8 - 1.6 - Partly cloudy 10 - - - -
03/09:00pm 11.3 WNW 7 8 1012.5 - 1.6 - Partly cloudy 10 - - - -
03/08:30pm 11.5 WNW 7 8 1012.2 - 1.6 - Partly cloudy 10 - - - -
03/08:00pm 11.7 W 7 10 1012.0 - 1.6 - Partly cloudy 10 - - - -
03/07:30pm 11.8 WSW 7 11 1011.6 - 1.6 - Partly cloudy 10 - - - -
03/07:00pm 11.9 WNW 7 8 1011.0 - 1.6 - - 10 - - - -
03/06:30pm 13.0 W 8 10 1010.4 - 1.6 - Partly cloudy 10 - - - -
03/06:00pm 14.2 W 12 17 1010.0 - 1.6 - Cloudy 10 - - - -
03/05:30pm 14.3 WSW 10 15 1009.5 - 1.6 - - 10 - - - -
03/05:00pm 15.1 W 15 20 1008.9 - 1.6 - - 10 - - - -
03/04:30pm 15.9 WSW 17 21 1008.4 - 1.6 - Partly cloudy 10 - - - -
03/04:00pm 17.0 WSW 20 30 1007.9 - 1.6 - Partly cloudy 10 - - - -
03/03:56pm 17.2 WSW 19 30 1007.7 - 1.6 - Partly cloudy 10 - - - -
03/03:30pm 17.1 W 17 24 1007.5 - 1.6 - Cloudy 10 - - - -
03/03:10pm 16.5 WSW 16 26 1007.1 - 1.6 - Partly cloudy 10 - - - -
03/03:00pm 16.2 WSW 17 23 1007.0 - 1.6 - Mostly cloudy 10 - - - -
03/02:30pm 15.8 WSW 13 17 1006.7 - 1.6 - Partly cloudy 10 - - - -
03/02:12pm 14.6 WSW 17 23 1006.9 - 1.6 - Partly cloudy 10 - - - -
03/02:04pm 14.5 WSW 20 30 1006.9 - 1.6 - Partly cloudy 6 - - - -
03/02:02pm 14.2 WSW 21 30 1006.8 - 1.6 - Partly cloudy 5 - - - -
03/02:00pm 14.1 WSW 21 30 1006.9 - 1.6 - Partly cloudy 6 - - - -
03/01:54pm 14.7 WSW 19 29 1006.7 - 1.2 - Partly cloudy 10 - - - -
03/01:30pm 14.7 SW 17 24 1006.5 - 1.2 - Partly cloudy 7 - - - -
03/01:01pm 15.6 WSW 16 22 1006.1 - 1.2 - Partly cloudy 10 - - - -
03/01:00pm 15.2 WSW 15 22 1006.1 - 1.2 - Partly cloudy 10 - - - -
03/12:50pm 14.7 SW 17 23 1006.2 - 1.2 - Partly cloudy 5 - - - -
03/12:30pm 16.2 WSW 13 16 1005.9 - 0.8 - Partly cloudy 10 - - - -
03/12:00pm 15.3 W 12 16 1006.3 - 0.8 Recent precip. Cloudy 10 - - - -
03/11:30am 15.4 WSW 13 17 1006.0 - 0.4 - Partly cloudy 5 - - - -
03/11:29am 15.5 WSW 13 17 1006.0 - 0.4 - Partly cloudy 5 - - - -
03/11:02am 18.3 W 15 25 1006.0 - 0.0 - Partly cloudy 10 - - - -
03/11:00am 18.7 W 13 22 1006.0 - 0.0 - Partly cloudy 10 - - - -
03/10:30am 16.7 W 18 24 1005.9 - 0.0 - Partly cloudy 10 - - - -
03/10:01am 18.1 W 20 30 1005.2 - 0.0 - Partly cloudy 10 - - - -
03/10:00am 18.1 W 21 30 1005.1 - 0.0 - Partly cloudy 10 - - - -
03/09:51am 18.7 W 18 29 1005.0 - 0.0 - - 10 - - - -
03/09:30am 18.6 W 15 22 1005.2 - 0.0 - - 10 - - - -
03/09:00am 17.6 W 15 21 1004.9 - 2.8 - Partly cloudy 10 - - - -
03/08:30am 16.9 W 17 24 1004.7 - 2.8 - Partly cloudy 10 - - - -
03/08:15am 16.7 W 17 28 1004.6 - 2.8 - Partly cloudy 10 - - - -
03/08:00am 16.5 W 18 26 1004.6 - 2.8 - Partly cloudy 10 - - - -
03/07:30am 16.6 W 18 29 1003.8 - 2.8 - Partly cloudy 10 - - - -
03/07:29am 16.5 W 17 27 1003.9 - 2.8 - Partly cloudy 10 - - - -
03/07:00am 16.3 W 14 20 1003.4 - 2.8 - Partly cloudy 10 - - - -
03/06:30am 16.4 WNW 20 27 1003.0 - 2.8 - Partly cloudy 10 - - - -
03/06:29am 16.3 WNW 20 27 1003.1 - 2.8 - Partly cloudy 10 - - - -
03/06:27am 16.3 WNW 20 27 1003.1 - 2.8 - Partly cloudy 10 - - - -
03/06:06am 16.4 NW 17 25 1002.7 - 2.6 - Partly cloudy 5 - - - -
03/06:00am 16.6 NW 19 30 1002.6 - 2.4 Recent precip. Cloudy 10 - - - -
03/05:53am 16.6 NW 19 30 1002.5 - 2.4 - Partly cloudy 10 - - - -
03/05:31am 16.2 NW 21 30 1002.6 - 2.4 - Partly cloudy 10 - - - -
03/05:30am 16.2 NW 21 30 1002.6 - 2.4 - Partly cloudy 10 - - - -
03/05:26am 16.2 NW 23 30 1002.7 - 2.4 - Partly cloudy 9 - - - -
03/05:15am 16.2 NW 22 35 1002.9 - 2.4 - Partly cloudy 5 - - - -
03/05:11am 16.5 NW 22 35 1002.9 - 2.2 - Partly cloudy 8 - - - -
03/05:00am 16.7 NW 21 30 1003.0 - 2.2 - Partly cloudy 10 - - - -
03/04:51am 16.7 NW 19 30 1002.8 - 2.2 - Partly cloudy 9 - - - -
03/04:40am 16.2 NW 19 27 1003.0 - 2.2 - Partly cloudy 10 - - - -
03/04:30am 16.0 NW 24 32 1003.0 - 2.2 - Partly cloudy 5 - - - -
03/04:24am 16.1 NW 23 35 1003.2 - 2.2 - Partly cloudy 5 - - - -
03/04:05am 17.3 NW 20 32 1002.7 - 2.0 - Partly cloudy 10 - - - -
03/04:00am 17.2 NW 19 28 1002.7 - 2.0 - Partly cloudy 10 - - - -
03/03:52am 17.2 NW 19 29 1003.0 - 2.0 - Partly cloudy 10 - - - -
03/03:30am 17.1 NW 21 28 1003.1 - 2.0 - Partly cloudy 10 - - - -
03/03:13am 17.1 NW 21 31 1003.3 - 2.0 - Partly cloudy 10 - - - -
03/03:00am 16.9 NW 19 27 1003.5 - 2.0 - Cloudy 10 - - - -
03/02:30am 17.0 NW 21 27 1003.9 - 2.0 - Partly cloudy 10 - - - -
03/02:06am 17.0 NW 19 29 1004.4 - 2.0 - Partly cloudy 10 - - - -
03/02:00am 17.1 NW 19 25 1004.6 - 2.0 - Partly cloudy 10 - - - -

Other Formats:

Comma delimited format used in spreadsheet applications
http://www.bom.gov.au/fwo/IDS60701/IDS60701.95807.axf

JavaScript Object Notation format (JSON) in row-major order
http://www.bom.gov.au/fwo/IDS60701/IDS60701.95807.json